Time;durP1;ratioP1;P1;durP2;ratioP2;P2;SDS_P1;SDS_P2;PMS_P1;PMS_P2;Temp;Humidity;BMP_temperature;BMP_pressure;BME280_temperature;BME280_humidity;BME280_pressure;Samples;Min_cycle;Max_cycle;Signal;HPM_P1;HPM_P2
2023/03/23 00:01:39;;;;;;;10.23;2.58;;;;;;;;;;5038554;28;20033;-73
2023/03/23 00:04:25;;;;;;;4.93;1.80;;;;;;;;;;5046616;28;20048;-76
2023/03/23 00:07:12;;;;;;;3.78;1.80;;;;;;;;;;5033017;28;20029;-71
2023/03/23 00:09:57;;;;;;;3.97;1.73;;;;;;;;;;5036861;28;20037;-72
2023/03/23 00:12:44;;;;;;;4.15;1.55;;;;;;;;;;5042973;28;20518;-72
2023/03/23 00:15:33;;;;;;;5.22;2.05;;;;;;;;;;5040651;28;20048;-71
2023/03/23 00:18:22;;;;;;;4.47;1.60;;;;;;;;;;5035700;28;20544;-70
2023/03/23 00:21:08;;;;;;;5.07;1.90;;;;;;;;;;5034701;28;20036;-67
2023/03/23 00:23:53;;;;;;;4.40;1.58;;;;;;;;;;5033455;28;20029;-68
2023/03/23 00:26:40;;;;;;;5.10;1.77;;;;;;;;;;5044477;28;20502;-69
2023/03/23 00:29:25;;;;;;;4.55;1.60;;;;;;;;;;5036442;28;20102;-69
2023/03/23 00:32:12;;;;;;;4.40;2.10;;;;;;;;;;5038083;28;20049;-70
2023/03/23 00:35:00;;;;;;;5.10;1.70;;;;;;;;;;5035175;28;20041;-68
2023/03/23 00:37:45;;;;;;;5.82;2.05;;;;;;;;;;5037250;28;20040;-69
2023/03/23 00:40:35;;;;;;;5.80;1.65;;;;;;;;;;5033401;28;20090;-68
2023/03/23 00:43:24;;;;;;;5.10;1.95;;;;;;;;;;5041407;28;20095;-74
2023/03/23 00:46:09;;;;;;;3.60;1.77;;;;;;;;;;5024414;28;20124;-74
2023/03/23 00:48:56;;;;;;;4.07;2.30;;;;;;;;;;5041985;28;20091;-75
2023/03/23 00:51:42;;;;;;;3.78;1.85;;;;;;;;;;5038500;28;20032;-76
2023/03/23 00:54:27;;;;;;;1.75;1.30;;;;;;;;;;5028465;28;20045;-75
2023/03/23 00:57:13;;;;;;;2.13;1.20;;;;;;;;;;5055874;28;20112;-79
2023/03/23 00:59:58;;;;;;;3.05;1.40;;;;;;;;;;5039401;28;20201;-76
2023/03/23 01:02:44;;;;;;;1.60;1.40;;;;;;;;;;5038063;28;20526;-75
2023/03/23 01:05:31;;;;;;;2.45;1.35;;;;;;;;;;5031933;28;20462;-77
2023/03/23 01:08:18;;;;;;;4.45;1.42;;;;;;;;;;5053765;28;20037;-75
2023/03/23 01:11:04;;;;;;;2.47;1.55;;;;;;;;;;5039363;28;20037;-76
2023/03/23 01:13:50;;;;;;;1.65;1.48;;;;;;;;;;5036050;28;20112;-75
2023/03/23 01:16:35;;;;;;;2.08;1.40;;;;;;;;;;5035659;28;20033;-72
2023/03/23 01:19:20;;;;;;;2.03;1.40;;;;;;;;;;5041836;28;20105;-68
2023/03/23 01:22:06;;;;;;;6.68;1.30;;;;;;;;;;5040194;28;20047;-68
2023/03/23 01:24:51;;;;;;;3.83;1.92;;;;;;;;;;5042535;28;20673;-67
2023/03/23 01:27:36;;;;;;;1.83;1.27;;;;;;;;;;5032249;28;20037;-67
2023/03/23 01:30:22;;;;;;;6.15;1.40;;;;;;;;;;5038085;28;20051;-67
2023/03/23 01:33:07;;;;;;;1.88;1.30;;;;;;;;;;5038435;28;20036;-67
2023/03/23 01:35:52;;;;;;;5.88;1.38;;;;;;;;;;5055292;28;20496;-67
2023/03/23 01:38:38;;;;;;;3.55;1.83;;;;;;;;;;5039890;28;20487;-79
2023/03/23 01:41:23;;;;;;;3.88;1.70;;;;;;;;;;5033916;28;20386;-78
2023/03/23 01:44:17;;;;;;;1.80;1.40;;;;;;;;;;5042073;28;20158;-78
2023/03/23 01:47:03;;;;;;;3.83;1.45;;;;;;;;;;5043396;28;20102;-80
2023/03/23 01:49:49;;;;;;;3.85;1.85;;;;;;;;;;5044884;28;20400;-78
2023/03/23 01:52:38;;;;;;;3.03;1.83;;;;;;;;;;5029962;28;20036;-77
2023/03/23 01:55:24;;;;;;;2.22;1.50;;;;;;;;;;5042186;28;20388;-66
2023/03/23 01:58:10;;;;;;;2.67;1.52;;;;;;;;;;5043864;28;20036;-77
2023/03/23 02:00:58;;;;;;;2.63;1.40;;;;;;;;;;5049240;28;20099;-78
2023/03/23 02:03:45;;;;;;;7.15;1.42;;;;;;;;;;5042947;28;20025;-78
2023/03/23 02:06:31;;;;;;;2.40;1.50;;;;;;;;;;5044025;28;20060;-78
2023/03/23 02:09:19;;;;;;;2.67;1.38;;;;;;;;;;5038211;28;20029;-79
2023/03/23 02:12:05;;;;;;;1.88;1.60;;;;;;;;;;5040413;28;20075;-74
2023/03/23 02:14:50;;;;;;;3.60;1.80;;;;;;;;;;5038162;28;20141;-74
2023/03/23 02:17:39;;;;;;;3.00;1.35;;;;;;;;;;5055117;28;20036;-74
2023/03/23 02:20:34;;;;;;;4.35;1.60;;;;;;;;;;5035996;28;20031;-74
2023/03/23 02:23:24;;;;;;;4.53;1.45;;;;;;;;;;5034046;28;20036;-74
2023/03/23 02:26:12;;;;;;;2.67;1.50;;;;;;;;;;5055094;28;20087;-73
2023/03/23 02:29:18;;;;;;;3.28;1.50;;;;;;;;;;5056990;28;20068;-75
2023/03/23 02:32:08;;;;;;;9.15;1.83;;;;;;;;;;5028149;28;20048;-73
2023/03/23 02:34:56;;;;;;;2.28;1.40;;;;;;;;;;5047346;28;20476;-73
2023/03/23 02:37:47;;;;;;;6.40;2.40;;;;;;;;;;5031201;28;20045;-72
2023/03/23 02:40:38;;;;;;;4.93;1.80;;;;;;;;;;5040113;28;20017;-75
2023/03/23 02:43:25;;;;;;;3.20;2.00;;;;;;;;;;5043190;28;20028;-73
2023/03/23 02:46:10;;;;;;;3.65;1.58;;;;;;;;;;5041165;28;20029;-75
2023/03/23 02:48:57;;;;;;;4.35;2.25;;;;;;;;;;5021681;28;20037;-75
2023/03/23 02:51:44;;;;;;;3.13;1.60;;;;;;;;;;5025889;28;20033;-71
2023/03/23 02:54:30;;;;;;;5.15;1.58;;;;;;;;;;5036949;28;20086;-72
2023/03/23 02:57:16;;;;;;;3.47;1.67;;;;;;;;;;5025829;28;20439;-70
2023/03/23 03:00:01;;;;;;;4.15;1.75;;;;;;;;;;5042411;28;20171;-71
2023/03/23 03:02:52;;;;;;;2.88;1.65;;;;;;;;;;5037379;28;20029;-71
2023/03/23 03:05:37;;;;;;;5.18;1.60;;;;;;;;;;5056374;28;20026;-70
2023/03/23 03:08:26;;;;;;;2.90;1.48;;;;;;;;;;5043101;28;20033;-82
2023/03/23 03:11:12;;;;;;;2.47;1.38;;;;;;;;;;5046493;28;20065;-74
2023/03/23 03:14:00;;;;;;;1.92;1.45;;;;;;;;;;5034522;28;20092;-73
2023/03/23 03:16:48;;;;;;;2.85;1.75;;;;;;;;;;5043064;28;20013;-74
2023/03/23 03:19:36;;;;;;;2.00;1.60;;;;;;;;;;5038787;28;20025;-73
2023/03/23 03:22:23;;;;;;;2.70;1.55;;;;;;;;;;5057277;28;20028;-73
2023/03/23 03:25:09;;;;;;;2.95;1.40;;;;;;;;;;5049213;28;20083;-69
2023/03/23 03:27:56;;;;;;;3.17;1.63;;;;;;;;;;5028432;28;20480;-68
2023/03/23 03:30:44;;;;;;;4.15;1.60;;;;;;;;;;5024367;28;20495;-69
2023/03/23 03:33:31;;;;;;;4.00;1.92;;;;;;;;;;5041461;28;20036;-68
2023/03/23 03:36:27;;;;;;;4.05;1.33;;;;;;;;;;5047050;28;20032;-68
2023/03/23 03:39:14;;;;;;;2.85;1.30;;;;;;;;;;5031748;28;20033;-67
2023/03/23 03:42:00;;;;;;;5.28;1.55;;;;;;;;;;5038987;28;20033;-67
2023/03/23 03:44:45;;;;;;;2.97;1.80;;;;;;;;;;5050567;28;20204;-72
2023/03/23 03:47:31;;;;;;;3.55;1.70;;;;;;;;;;5059102;28;20072;-68
2023/03/23 03:50:17;;;;;;;3.13;1.80;;;;;;;;;;5053074;28;20025;-68
2023/03/23 03:53:02;;;;;;;2.00;1.80;;;;;;;;;;5042323;28;20147;-69
2023/03/23 03:55:49;;;;;;;4.88;1.63;;;;;;;;;;5039417;28;20380;-67
2023/03/23 03:58:35;;;;;;;3.55;1.70;;;;;;;;;;5054861;28;20033;-67
2023/03/23 04:01:22;;;;;;;1.83;1.45;;;;;;;;;;5040897;28;20048;-70
2023/03/23 04:04:07;;;;;;;2.33;1.30;;;;;;;;;;5047954;28;20029;-73
2023/03/23 04:06:53;;;;;;;6.60;1.63;;;;;;;;;;5037813;28;20034;-67
2023/03/23 04:09:38;;;;;;;2.60;1.40;;;;;;;;;;5039745;28;20561;-69
2023/03/23 04:12:23;;;;;;;1.38;1.27;;;;;;;;;;5043849;28;20427;-68
2023/03/23 04:15:09;;;;;;;3.90;1.70;;;;;;;;;;5034385;28;20115;-68
2023/03/23 04:17:56;;;;;;;2.22;1.60;;;;;;;;;;5042209;28;20021;-69
2023/03/23 04:20:44;;;;;;;1.77;1.30;;;;;;;;;;5046127;28;20017;-78
2023/03/23 04:23:33;;;;;;;5.38;1.65;;;;;;;;;;5035182;28;20434;-69
2023/03/23 04:26:18;;;;;;;2.92;1.42;;;;;;;;;;5043967;28;20691;-67
2023/03/23 04:29:05;;;;;;;6.35;2.00;;;;;;;;;;5037936;28;20037;-70
2023/03/23 04:31:52;;;;;;;2.97;1.50;;;;;;;;;;5038480;28;20041;-69
2023/03/23 04:34:37;;;;;;;9.57;1.80;;;;;;;;;;5057772;28;20495;-68
2023/03/23 04:37:25;;;;;;;5.82;1.48;;;;;;;;;;5049082;28;20108;-67
2023/03/23 04:40:14;;;;;;;4.18;1.98;;;;;;;;;;5054654;28;20399;-71
2023/03/23 04:43:05;;;;;;;2.83;1.38;;;;;;;;;;5023646;28;20540;-79
2023/03/23 04:45:55;;;;;;;4.00;1.50;;;;;;;;;;5041007;28;20041;-78
2023/03/23 04:48:41;;;;;;;5.95;1.90;;;;;;;;;;5027556;28;20029;-77
2023/03/23 04:51:27;;;;;;;3.60;1.77;;;;;;;;;;5043940;28;20353;-78
2023/03/23 04:54:14;;;;;;;3.45;1.35;;;;;;;;;;5044565;28;20122;-77
2023/03/23 04:56:59;;;;;;;5.25;1.73;;;;;;;;;;5039023;28;20071;-71
2023/03/23 04:59:45;;;;;;;2.72;1.60;;;;;;;;;;5045138;28;20028;-78
2023/03/23 05:02:30;;;;;;;5.18;2.15;;;;;;;;;;5029542;28;20119;-79
2023/03/23 05:05:16;;;;;;;4.20;1.65;;;;;;;;;;5039637;28;20379;-78
2023/03/23 05:08:01;;;;;;;3.65;1.45;;;;;;;;;;5041085;28;20028;-78
2023/03/23 05:10:52;;;;;;;2.42;1.58;;;;;;;;;;5039365;28;20026;-80
2023/03/23 05:13:37;;;;;;;5.43;2.35;;;;;;;;;;5056513;28;20040;-80
2023/03/23 05:16:22;;;;;;;4.50;1.63;;;;;;;;;;5043565;28;20910;-74
2023/03/23 05:19:08;;;;;;;3.20;1.73;;;;;;;;;;5035556;28;20116;-75
2023/03/23 05:21:53;;;;;;;5.60;1.90;;;;;;;;;;5044545;28;20036;-74
2023/03/23 05:24:39;;;;;;;4.53;1.70;;;;;;;;;;5036612;28;20028;-75
2023/03/23 05:27:27;;;;;;;2.33;1.60;;;;;;;;;;5022517;28;20695;-76
2023/03/23 05:30:15;;;;;;;3.83;1.83;;;;;;;;;;5043552;28;20056;-75
2023/03/23 05:33:01;;;;;;;5.72;2.50;;;;;;;;;;5040051;28;20060;-73
2023/03/23 05:35:47;;;;;;;4.05;2.00;;;;;;;;;;5030328;28;20024;-77
2023/03/23 05:38:32;;;;;;;5.43;1.90;;;;;;;;;;5046287;28;20060;-70
2023/03/23 05:41:17;;;;;;;7.82;2.58;;;;;;;;;;5041407;28;20021;-70
2023/03/23 05:44:03;;;;;;;5.15;1.95;;;;;;;;;;5025963;28;20021;-71
2023/03/23 05:46:48;;;;;;;2.85;1.73;;;;;;;;;;5039696;28;20033;-70
2023/03/23 05:49:36;;;;;;;4.50;2.20;;;;;;;;;;5045183;28;20036;-72
2023/03/23 05:52:23;;;;;;;6.40;1.90;;;;;;;;;;5043795;28;20078;-73
2023/03/23 05:55:09;;;;;;;4.03;2.03;;;;;;;;;;5039244;28;20039;-71
2023/03/23 05:57:54;;;;;;;3.70;2.13;;;;;;;;;;5039652;28;20032;-71
2023/03/23 06:00:39;;;;;;;4.70;1.90;;;;;;;;;;5042092;28;20067;-72
2023/03/23 06:03:24;;;;;;;5.43;2.00;;;;;;;;;;5040127;28;20032;-73
2023/03/23 06:06:11;;;;;;;4.57;1.88;;;;;;;;;;5043313;28;20163;-72
2023/03/23 06:08:56;;;;;;;4.38;2.05;;;;;;;;;;5040862;28;20106;-74
2023/03/23 06:11:41;;;;;;;4.90;1.90;;;;;;;;;;5044227;28;20025;-74
2023/03/23 06:14:27;;;;;;;2.92;1.80;;;;;;;;;;5040466;28;20024;-77
2023/03/23 06:17:12;;;;;;;7.70;2.17;;;;;;;;;;5041867;28;20582;-78
2023/03/23 06:19:57;;;;;;;5.20;2.00;;;;;;;;;;5031746;28;20569;-79
2023/03/23 06:22:42;;;;;;;7.68;3.05;;;;;;;;;;5037042;28;20036;-79
2023/03/23 06:25:28;;;;;;;4.88;1.75;;;;;;;;;;5044528;28;20515;-79
2023/03/23 06:28:13;;;;;;;3.65;1.80;;;;;;;;;;5040741;28;20033;-79
2023/03/23 06:31:00;;;;;;;4.93;1.95;;;;;;;;;;5046426;28;20044;-78
2023/03/23 06:33:47;;;;;;;8.48;2.03;;;;;;;;;;5047991;28;20056;-71
2023/03/23 06:36:32;;;;;;;9.63;1.90;;;;;;;;;;5021475;28;20148;-69
2023/03/23 06:39:17;;;;;;;7.68;1.67;;;;;;;;;;5034292;28;20527;-70
2023/03/23 06:42:03;;;;;;;3.35;1.60;;;;;;;;;;5045248;28;20036;-71
2023/03/23 06:44:48;;;;;;;5.05;2.22;;;;;;;;;;5035708;28;20042;-71
2023/03/23 06:47:33;;;;;;;10.32;2.35;;;;;;;;;;5049355;28;20127;-73
2023/03/23 06:50:18;;;;;;;4.70;2.00;;;;;;;;;;5032062;28;20068;-73
2023/03/23 06:53:04;;;;;;;5.20;2.20;;;;;;;;;;5045793;28;20556;-73
2023/03/23 06:55:50;;;;;;;5.68;2.20;;;;;;;;;;5033691;28;20041;-72
2023/03/23 06:58:35;;;;;;;4.20;1.73;;;;;;;;;;5031294;28;20022;-73
2023/03/23 07:01:20;;;;;;;3.55;2.03;;;;;;;;;;5043115;28;20120;-73
2023/03/23 07:04:05;;;;;;;8.70;2.65;;;;;;;;;;5043109;28;20491;-72
2023/03/23 07:06:51;;;;;;;6.07;2.10;;;;;;;;;;5044476;28;20033;-72
2023/03/23 07:09:36;;;;;;;4.75;1.80;;;;;;;;;;5039502;28;20040;-68
2023/03/23 07:12:22;;;;;;;7.90;3.33;;;;;;;;;;5055734;28;20025;-67
2023/03/23 07:15:10;;;;;;;7.28;2.50;;;;;;;;;;5041087;28;20404;-67
2023/03/23 07:17:55;;;;;;;5.13;1.88;;;;;;;;;;5032396;28;20449;-67
2023/03/23 07:20:40;;;;;;;5.93;2.50;;;;;;;;;;5045967;28;20039;-66
2023/03/23 07:23:26;;;;;;;5.65;1.83;;;;;;;;;;5045507;28;20369;-67
2023/03/23 07:26:11;;;;;;;4.22;1.63;;;;;;;;;;5028935;28;20045;-74
2023/03/23 07:28:56;;;;;;;3.22;1.70;;;;;;;;;;5027460;28;20041;-72
2023/03/23 07:31:42;;;;;;;6.75;2.00;;;;;;;;;;5041054;28;20098;-73
2023/03/23 07:34:27;;;;;;;5.55;2.00;;;;;;;;;;5047051;28;20055;-76
2023/03/23 07:37:13;;;;;;;5.18;2.10;;;;;;;;;;5041292;28;20037;-74
2023/03/23 07:39:58;;;;;;;5.15;1.88;;;;;;;;;;5041362;28;20584;-76
2023/03/23 07:42:44;;;;;;;2.45;1.85;;;;;;;;;;5043033;28;20025;-74
2023/03/23 07:45:30;;;;;;;4.22;1.80;;;;;;;;;;5046153;28;20423;-74
2023/03/23 07:48:15;;;;;;;5.47;2.30;;;;;;;;;;5034254;28;20416;-75
2023/03/23 07:51:01;;;;;;;4.57;2.08;;;;;;;;;;5037830;28;20025;-75
2023/03/23 07:53:47;;;;;;;3.30;1.88;;;;;;;;;;5047710;28;20040;-75
2023/03/23 07:56:32;;;;;;;5.65;1.60;;;;;;;;;;5044364;28;20055;-76
2023/03/23 07:59:17;;;;;;;2.35;1.67;;;;;;;;;;5033475;28;20472;-76
2023/03/23 08:02:03;;;;;;;4.57;1.55;;;;;;;;;;5045913;28;20044;-73
2023/03/23 08:04:49;;;;;;;3.00;1.50;;;;;;;;;;5041489;28;20391;-76
2023/03/23 08:07:34;;;;;;;2.90;1.83;;;;;;;;;;5033468;28;20490;-75
2023/03/23 08:10:23;;;;;;;2.60;1.50;;;;;;;;;;5048058;28;20037;-77
2023/03/23 08:13:09;;;;;;;5.03;1.58;;;;;;;;;;5045254;28;20037;-74
2023/03/23 08:15:56;;;;;;;2.47;1.73;;;;;;;;;;5042392;28;20539;-76
2023/03/23 08:18:42;;;;;;;3.47;1.70;;;;;;;;;;5042279;28;20033;-76
2023/03/23 08:21:27;;;;;;;3.28;1.85;;;;;;;;;;5045012;28;20024;-70
2023/03/23 08:24:13;;;;;;;3.15;2.25;;;;;;;;;;5045775;28;20029;-67
2023/03/23 08:26:58;;;;;;;4.60;1.77;;;;;;;;;;5039432;28;20060;-70
2023/03/23 08:29:44;;;;;;;2.50;1.60;;;;;;;;;;5040725;28;20765;-69
2023/03/23 08:32:29;;;;;;;2.20;1.70;;;;;;;;;;5041634;28;20028;-71
2023/03/23 08:35:15;;;;;;;3.33;1.77;;;;;;;;;;5041408;28;20037;-68
2023/03/23 08:38:00;;;;;;;4.32;2.00;;;;;;;;;;5036567;28;20479;-74
2023/03/23 08:40:50;;;;;;;5.57;2.15;;;;;;;;;;5044338;28;20487;-70
2023/03/23 08:43:35;;;;;;;4.40;1.65;;;;;;;;;;5051537;28;20486;-72
2023/03/23 08:46:20;;;;;;;3.05;1.70;;;;;;;;;;5040667;28;20440;-70
2023/03/23 08:49:05;;;;;;;2.80;1.50;;;;;;;;;;5043904;28;20033;-69
2023/03/23 08:51:51;;;;;;;4.82;1.70;;;;;;;;;;5047086;28;20020;-69
2023/03/23 08:54:36;;;;;;;5.18;1.63;;;;;;;;;;5028948;28;20021;-71
2023/03/23 08:57:21;;;;;;;4.75;2.13;;;;;;;;;;5034452;28;20029;-70
2023/03/23 09:00:17;;;;;;;3.50;1.48;;;;;;;;;;5041660;28;20196;-69
2023/03/23 09:03:04;;;;;;;3.65;1.80;;;;;;;;;;5059938;28;20074;-70
2023/03/23 09:05:49;;;;;;;4.32;1.75;;;;;;;;;;5027813;28;20025;-71
2023/03/23 09:08:35;;;;;;;4.32;1.58;;;;;;;;;;5038717;28;20037;-70
2023/03/23 09:11:20;;;;;;;6.13;1.63;;;;;;;;;;5029906;28;20529;-70
2023/03/23 09:14:07;;;;;;;3.78;1.60;;;;;;;;;;5039164;28;20488;-69
2023/03/23 09:16:52;;;;;;;2.47;1.60;;;;;;;;;;5043541;28;20013;-73
2023/03/23 09:19:38;;;;;;;2.45;1.60;;;;;;;;;;5038696;28;20036;-67
2023/03/23 09:22:23;;;;;;;6.15;1.70;;;;;;;;;;5020096;28;20460;-68
2023/03/23 09:25:10;;;;;;;1.85;1.42;;;;;;;;;;5025010;28;20057;-69
2023/03/23 09:27:56;;;;;;;2.42;1.33;;;;;;;;;;5040831;28;20025;-68
2023/03/23 09:30:42;;;;;;;2.60;1.65;;;;;;;;;;5043409;28;20045;-68
2023/03/23 09:33:32;;;;;;;3.75;1.58;;;;;;;;;;5042713;28;20032;-69
2023/03/23 09:36:21;;;;;;;2.70;1.63;;;;;;;;;;5022292;28;20029;-72
2023/03/23 09:39:07;;;;;;;3.03;1.95;;;;;;;;;;5038097;28;20530;-70
2023/03/23 09:42:09;;;;;;;3.08;1.90;;;;;;;;;;5024799;28;20033;-69
2023/03/23 09:45:02;;;;;;;2.80;1.70;;;;;;;;;;5044626;28;20021;-70
2023/03/23 09:47:47;;;;;;;4.00;1.42;;;;;;;;;;5036282;28;20029;-71
2023/03/23 09:50:34;;;;;;;2.60;1.33;;;;;;;;;;5047708;28;20112;-70
2023/03/23 09:53:22;;;;;;;1.58;1.38;;;;;;;;;;5039439;28;20652;-70
2023/03/23 09:56:12;;;;;;;5.30;1.50;;;;;;;;;;5047643;28;20110;-82
2023/03/23 09:59:00;;;;;;;4.35;1.60;;;;;;;;;;5042746;28;20044;-81
2023/03/23 10:01:51;;;;;;;2.38;1.52;;;;;;;;;;5056931;28;20037;-77
2023/03/23 10:04:51;;;;;;;1.63;1.20;;;;;;;;;;5046560;28;20021;-79
2023/03/23 10:07:37;;;;;;;3.10;1.67;;;;;;;;;;5043590;28;20498;-78
2023/03/23 10:10:42;;;;;;;3.63;1.75;;;;;;;;;;5048186;28;20036;-75
2023/03/23 10:13:37;;;;;;;2.33;1.50;;;;;;;;;;5039802;28;20037;-70
2023/03/23 10:16:25;;;;;;;3.85;1.73;;;;;;;;;;5045977;28;20119;-68
2023/03/23 10:19:26;;;;;;;4.28;1.70;;;;;;;;;;5041495;28;20033;-67
2023/03/23 10:22:13;;;;;;;2.28;1.30;;;;;;;;;;5023029;28;20021;-68
2023/03/23 10:25:16;;;;;;;6.95;1.90;;;;;;;;;;5028742;28;20047;-68
2023/03/23 10:28:01;;;;;;;4.45;2.22;;;;;;;;;;5032232;28;20519;-69
2023/03/23 10:30:55;;;;;;;2.70;1.60;;;;;;;;;;5039280;28;20476;-83
2023/03/23 10:33:42;;;;;;;4.93;1.50;;;;;;;;;;5050313;28;20032;-74
2023/03/23 10:36:30;;;;;;;3.78;1.98;;;;;;;;;;5042824;28;20061;-74
2023/03/23 10:39:19;;;;;;;3.88;1.30;;;;;;;;;;5028349;28;20112;-75
2023/03/23 10:42:07;;;;;;;3.05;1.50;;;;;;;;;;5048720;28;20035;-76
2023/03/23 10:44:53;;;;;;;4.05;1.70;;;;;;;;;;5043046;28;20033;-74
2023/03/23 10:47:40;;;;;;;3.70;1.83;;;;;;;;;;5050606;28;20078;-70
2023/03/23 10:50:33;;;;;;;2.60;1.75;;;;;;;;;;5044535;28;20123;-73
2023/03/23 10:53:39;;;;;;;1.67;1.58;;;;;;;;;;5042271;28;20067;-79
2023/03/23 10:56:27;;;;;;;4.20;1.50;;;;;;;;;;5045440;28;20604;-79
2023/03/23 10:59:22;;;;;;;4.35;1.95;;;;;;;;;;5045146;28;20503;-78
2023/03/23 11:02:14;;;;;;;2.42;1.50;;;;;;;;;;5042079;28;20040;-76
2023/03/23 11:05:01;;;;;;;2.13;1.45;;;;;;;;;;5038908;28;20483;-72
2023/03/23 11:07:51;;;;;;;3.65;1.80;;;;;;;;;;5042612;28;20074;-77
2023/03/23 11:10:38;;;;;;;2.08;1.50;;;;;;;;;;5030621;28;20024;-76
2023/03/23 11:13:29;;;;;;;2.95;1.60;;;;;;;;;;5050829;28;20108;-74
2023/03/23 11:16:27;;;;;;;3.40;1.58;;;;;;;;;;5042657;28;20021;-72
2023/03/23 11:19:14;;;;;;;3.60;1.70;;;;;;;;;;5040368;28;20047;-75
2023/03/23 11:22:04;;;;;;;2.45;1.52;;;;;;;;;;5037552;28;20109;-73
2023/03/23 11:24:55;;;;;;;;;;;;;;;;;;5045042;28;20028;-75
2023/03/23 11:27:42;;;;;;;3.15;1.60;;;;;;;;;;5030200;28;20003;-67
2023/03/23 11:30:30;;;;;;;2.22;1.70;;;;;;;;;;5045149;28;20123;-68
2023/03/23 11:33:15;;;;;;;4.20;1.70;;;;;;;;;;5027765;28;20090;-68
2023/03/23 11:36:01;;;;;;;2.60;1.63;;;;;;;;;;5044207;28;20339;-67
2023/03/23 11:38:47;;;;;;;3.40;2.03;;;;;;;;;;5045547;28;20021;-70
2023/03/23 11:41:33;;;;;;;3.58;1.80;;;;;;;;;;5037428;28;20031;-72
2023/03/23 11:44:20;;;;;;;2.90;1.70;;;;;;;;;;5055996;28;20052;-69
2023/03/23 11:47:20;;;;;;;3.40;1.77;;;;;;;;;;5020802;28;20030;-74
2023/03/23 11:50:12;;;;;;;5.60;2.80;;;;;;;;;;5045765;28;20033;-74
2023/03/23 11:53:07;;;;;;;2.45;1.52;;;;;;;;;;5039530;28;20036;-75
2023/03/23 11:55:55;;;;;;;2.83;1.90;;;;;;;;;;5043859;28;20025;-72
2023/03/23 11:58:40;;;;;;;2.95;1.80;;;;;;;;;;5045155;28;20032;-72
2023/03/23 12:01:36;;;;;;;4.82;2.15;;;;;;;;;;5039612;28;20508;-70
2023/03/23 12:04:28;;;;;;;5.10;1.73;;;;;;;;;;5047100;28;20080;-74
2023/03/23 12:07:13;;;;;;;4.03;1.70;;;;;;;;;;5042271;28;20052;-73
2023/03/23 12:10:10;;;;;;;3.35;1.67;;;;;;;;;;5049332;28;20044;-74
2023/03/23 12:13:19;;;;;;;2.42;1.40;;;;;;;;;;5048332;28;20592;-74
2023/03/23 12:16:17;;;;;;;4.35;1.58;;;;;;;;;;5042174;28;20233;-74
2023/03/23 12:19:18;;;;;;;3.47;1.50;;;;;;;;;;5044374;28;20518;-72
2023/03/23 12:22:22;;;;;;;3.78;1.70;;;;;;;;;;5055772;22;20088;-76
2023/03/23 12:25:15;;;;;;;3.47;1.55;;;;;;;;;;5038789;28;20022;-75
2023/03/23 12:28:20;;;;;;;2.25;1.42;;;;;;;;;;5024830;28;20048;-73
2023/03/23 12:31:11;;;;;;;2.88;1.67;;;;;;;;;;5028630;28;20024;-75
2023/03/23 12:34:16;;;;;;;4.78;1.60;;;;;;;;;;5029847;28;20029;-76
2023/03/23 12:37:15;;;;;;;5.53;1.70;;;;;;;;;;5019586;28;20112;-75
2023/03/23 12:40:21;;;;;;;3.30;1.60;;;;;;;;;;5021325;28;20084;-72
2023/03/23 12:43:18;;;;;;;3.83;1.50;;;;;;;;;;5024001;28;20257;-70
2023/03/23 12:46:11;;;;;;;2.60;1.58;;;;;;;;;;5024558;28;20479;-68
2023/03/23 12:49:00;;;;;;;3.97;1.70;;;;;;;;;;5023937;28;20122;-70
2023/03/23 12:51:51;;;;;;;3.05;1.73;;;;;;;;;;5022517;28;20028;-69
2023/03/23 12:54:37;;;;;;;2.70;1.67;;;;;;;;;;5035517;28;20406;-72
2023/03/23 12:57:22;;;;;;;2.45;1.33;;;;;;;;;;5022478;28;20029;-83
2023/03/23 13:00:34;;;;;;;2.25;1.65;;;;;;;;;;5038347;28;20045;-74
2023/03/23 13:03:45;;;;;;;4.60;1.95;;;;;;;;;;5015706;28;20042;-72
2023/03/23 13:06:38;;;;;;;4.93;1.60;;;;;;;;;;5029723;28;20444;-73
2023/03/23 13:09:39;;;;;;;1.92;1.52;;;;;;;;;;5004521;28;20521;-74
2023/03/23 13:12:25;;;;;;;2.58;1.92;;;;;;;;;;5000709;28;20041;-75
2023/03/23 13:15:29;;;;;;;3.47;1.80;;;;;;;;;;5018270;28;20103;-78
2023/03/23 13:18:31;;;;;;;2.40;1.65;;;;;;;;;;5020164;28;20038;-78
2023/03/23 13:21:20;;;;;;;2.58;1.55;;;;;;;;;;5020881;28;20032;-82
2023/03/23 13:24:08;;;;;;;5.18;1.67;;;;;;;;;;5005595;28;20042;-83
2023/03/23 13:26:55;;;;;;;2.75;1.55;;;;;;;;;;5020395;28;20022;-81
2023/03/23 13:29:45;;;;;;;1.95;1.60;;;;;;;;;;5007653;28;20038;-84
2023/03/23 13:32:34;;;;;;;3.08;1.63;;;;;;;;;;5006916;28;20112;-73
2023/03/23 13:35:21;;;;;;;3.20;1.70;;;;;;;;;;5008938;28;20103;-82
2023/03/23 13:38:18;;;;;;;4.50;1.80;;;;;;;;;;5003914;28;20042;-81
2023/03/23 13:41:11;;;;;;;3.08;1.65;;;;;;;;;;5005588;28;20563;-82
2023/03/23 13:44:19;;;;;;;2.70;1.70;;;;;;;;;;5007502;28;20029;-78
2023/03/23 13:47:28;;;;;;;3.17;1.60;;;;;;;;;;5022774;28;20030;-82
2023/03/23 13:50:17;;;;;;;2.83;1.60;;;;;;;;;;5009686;28;20040;-81
2023/03/23 13:53:13;;;;;;;2.17;1.70;;;;;;;;;;5008025;28;20091;-69
2023/03/23 13:56:06;;;;;;;2.90;1.83;;;;;;;;;;5022712;28;20057;-70
2023/03/23 13:58:56;;;;;;;5.13;1.65;;;;;;;;;;5007295;28;20392;-71
2023/03/23 14:01:41;;;;;;;3.10;1.65;;;;;;;;;;5020780;28;20119;-72
2023/03/23 14:04:32;;;;;;;2.45;1.75;;;;;;;;;;5022663;28;20049;-70
2023/03/23 14:07:23;;;;;;;4.50;1.80;;;;;;;;;;5018160;28;20113;-70
2023/03/23 14:10:16;;;;;;;2.63;1.73;;;;;;;;;;5008774;28;20044;-72
2023/03/23 14:13:02;;;;;;;4.32;1.85;;;;;;;;;;5009628;28;20048;-72
2023/03/23 14:15:55;;;;;;;4.18;1.70;;;;;;;;;;5009008;28;20159;-74
2023/03/23 14:18:42;;;;;;;3.45;2.17;;;;;;;;;;5007510;28;20092;-71
2023/03/23 14:21:34;;;;;;;2.35;1.85;;;;;;;;;;5020181;28;20092;-73
2023/03/23 14:24:31;;;;;;;2.78;1.85;;;;;;;;;;5024199;28;20120;-73
2023/03/23 14:27:18;;;;;;;2.78;1.92;;;;;;;;;;5009303;28;20025;-78
2023/03/23 14:30:08;;;;;;;2.72;1.65;;;;;;;;;;5021312;28;20396;-79
2023/03/23 14:33:01;;;;;;;3.63;1.85;;;;;;;;;;5009901;28;20029;-77
2023/03/23 14:35:48;;;;;;;3.03;1.73;;;;;;;;;;5017974;28;20038;-81
2023/03/23 14:38:34;;;;;;;4.00;2.08;;;;;;;;;;5009757;28;20033;-82
2023/03/23 14:41:19;;;;;;;2.85;1.60;;;;;;;;;;5009694;28;20040;-82
2023/03/23 14:44:06;;;;;;;2.15;1.77;;;;;;;;;;5008415;28;20448;-79
2023/03/23 14:46:52;;;;;;;4.18;1.90;;;;;;;;;;5021738;28;20025;-70
2023/03/23 14:49:40;;;;;;;3.45;1.83;;;;;;;;;;5004718;28;20034;-76
2023/03/23 14:52:29;;;;;;;3.25;1.80;;;;;;;;;;5022310;28;20029;-75
2023/03/23 14:55:17;;;;;;;4.07;1.92;;;;;;;;;;5022866;28;20036;-75
2023/03/23 14:58:13;;;;;;;5.25;2.03;;;;;;;;;;5008839;28;20041;-78
2023/03/23 15:01:00;;;;;;;4.22;2.10;;;;;;;;;;5020228;28;20530;-76
2023/03/23 15:03:52;;;;;;;4.22;2.00;;;;;;;;;;4995852;28;20030;-74
2023/03/23 15:06:40;;;;;;;5.90;1.90;;;;;;;;;;5014144;28;20392;-82
2023/03/23 15:09:30;;;;;;;2.67;1.67;;;;;;;;;;4999690;28;20086;-81
2023/03/23 15:12:30;;;;;;;3.35;2.22;;;;;;;;;;4995701;28;20026;-83
2023/03/23 15:15:29;;;;;;;3.30;1.83;;;;;;;;;;5008117;28;20496;-82
2023/03/23 15:18:35;;;;;;;4.43;1.70;;;;;;;;;;4994074;28;20037;-83
2023/03/23 15:21:27;;;;;;;4.43;2.33;;;;;;;;;;5007941;28;20117;-81
2023/03/23 15:24:20;;;;;;;4.38;1.85;;;;;;;;;;4995485;28;20038;-75
2023/03/23 15:27:24;;;;;;;8.63;2.78;;;;;;;;;;5009495;28;20040;-74
2023/03/23 15:30:13;;;;;;;3.65;1.80;;;;;;;;;;5003369;28;20097;-74
2023/03/23 15:33:09;;;;;;;4.80;2.30;;;;;;;;;;5006471;28;20038;-74
2023/03/23 15:35:56;;;;;;;3.20;1.63;;;;;;;;;;5019239;28;20022;-73
2023/03/23 15:38:43;;;;;;;3.13;2.00;;;;;;;;;;5023274;28;20500;-73
2023/03/23 15:41:30;;;;;;;3.03;2.03;;;;;;;;;;5007703;28;20325;-78
2023/03/23 15:44:34;;;;;;;6.00;2.10;;;;;;;;;;5009331;28;20029;-74
2023/03/23 15:47:20;;;;;;;3.35;1.90;;;;;;;;;;5020960;28;20052;-74
2023/03/23 15:50:13;;;;;;;5.13;2.28;;;;;;;;;;5004844;28;20034;-74
2023/03/23 15:52:58;;;;;;;3.53;1.80;;;;;;;;;;5007263;28;20030;-75
2023/03/23 15:55:43;;;;;;;4.38;1.70;;;;;;;;;;5020490;28;20363;-74
2023/03/23 15:58:29;;;;;;;5.72;1.75;;;;;;;;;;5005691;28;20036;-74
2023/03/23 16:01:17;;;;;;;2.47;1.88;;;;;;;;;;5009064;28;20033;-73
2023/03/23 16:04:10;;;;;;;5.15;1.77;;;;;;;;;;5006834;28;20024;-68
2023/03/23 16:06:57;;;;;;;3.38;1.80;;;;;;;;;;5015491;28;20520;-68
2023/03/23 16:09:43;;;;;;;4.55;2.10;;;;;;;;;;5006585;28;20511;-70
2023/03/23 16:12:28;;;;;;;2.25;1.80;;;;;;;;;;5005524;28;20828;-68
2023/03/23 16:15:14;;;;;;;6.13;2.15;;;;;;;;;;5004340;28;20042;-69
2023/03/23 16:17:59;;;;;;;3.58;1.90;;;;;;;;;;5004556;28;20205;-80
2023/03/23 16:20:45;;;;;;;4.57;2.55;;;;;;;;;;5006888;28;20017;-75
2023/03/23 16:23:30;;;;;;;4.55;1.90;;;;;;;;;;5004894;28;20049;-78
2023/03/23 16:26:16;;;;;;;4.63;1.95;;;;;;;;;;5021586;28;20533;-76
2023/03/23 16:29:02;;;;;;;2.67;1.65;;;;;;;;;;5008457;28;20069;-73
2023/03/23 16:31:47;;;;;;;6.05;2.10;;;;;;;;;;5006554;28;20030;-75
2023/03/23 16:34:34;;;;;;;4.60;2.15;;;;;;;;;;5007859;28;20073;-78
2023/03/23 16:37:20;;;;;;;4.80;2.40;;;;;;;;;;5003778;28;20037;-79
2023/03/23 16:40:06;;;;;;;6.30;2.30;;;;;;;;;;5008404;28;20036;-76
2023/03/23 16:42:51;;;;;;;2.97;1.83;;;;;;;;;;5005321;28;20093;-77
2023/03/23 16:45:38;;;;;;;4.60;2.00;;;;;;;;;;5020884;28;20017;-77
2023/03/23 16:48:25;;;;;;;3.10;2.05;;;;;;;;;;5020217;28;20038;-77
2023/03/23 16:51:10;;;;;;;3.05;1.55;;;;;;;;;;5016996;28;20033;-78